Time;durP1;ratioP1;P1;durP2;ratioP2;P2;SDS_P1;SDS_P2;PMS_P1;PMS_P2;Temp;Humidity;BMP_temperature;BMP_pressure;BME280_temperature;BME280_humidity;BME280_pressure;Samples;Min_cycle;Max_cycle;Signal;HPM_P1;HPM_P2
2021/10/02 00:45:23;;;;;;;11.18;6.63;;;;;;;;;;5034207;28;20109;-43
2021/10/02 00:47:52;;;;;;;15.35;8.95;;;;;;;;;;5034247;28;20018;-44
2021/10/02 00:50:18;;;;;;;10.38;6.80;;;;;;;;;;5034121;28;20033;-44
2021/10/02 00:52:43;;;;;;;13.00;6.40;;;;;;;;;;5034034;28;20539;-44
2021/10/02 00:55:09;;;;;;;13.50;6.90;;;;;;;;;;5034303;28;20044;-44
2021/10/02 00:57:34;;;;;;;15.25;7.32;;;;;;;;;;5033854;28;20033;-43
2021/10/02 01:00:00;;;;;;;11.32;6.45;;;;;;;;;;5034235;28;20034;-44
2021/10/02 01:02:44;;;;;;;13.23;7.35;;;;;;;;;;5033834;28;20377;-44
2021/10/02 01:05:13;;;;;;;12.40;6.18;;;;;;;;;;5034074;28;20033;-44
2021/10/02 01:08:03;;;;;;;11.50;6.65;;;;;;;;;;5033776;28;20021;-44
2021/10/02 01:10:37;;;;;;;12.27;6.78;;;;;;;;;;5033441;28;20416;-44
2021/10/02 01:13:03;;;;;;;14.10;6.93;;;;;;;;;;5033769;28;20033;-44
2021/10/02 01:15:54;;;;;;;11.80;6.45;;;;;;;;;;5033558;28;20038;-44
2021/10/02 01:18:29;;;;;;;11.95;6.82;;;;;;;;;;5032574;28;20495;-44
2021/10/02 01:21:02;;;;;;;11.82;6.15;;;;;;;;;;5033683;28;20496;-44
2021/10/02 01:23:45;;;;;;;12.35;6.57;;;;;;;;;;5033568;28;20036;-45
2021/10/02 01:26:26;;;;;;;14.85;7.50;;;;;;;;;;5033374;28;20118;-44
2021/10/02 01:28:56;;;;;;;12.57;7.10;;;;;;;;;;5033068;28;20060;-44
2021/10/02 01:31:32;;;;;;;13.13;6.65;;;;;;;;;;5033303;28;20037;-43
2021/10/02 01:34:14;;;;;;;11.05;6.20;;;;;;;;;;5033411;28;20112;-45
2021/10/02 01:47:56;;;;;;;14.90;5.90;;;;;;;;;;5033086;28;20036;-44
2021/10/02 01:50:24;;;;;;;12.23;7.07;;;;;;;;;;5031760;28;20026;-44
2021/10/02 01:52:50;;;;;;;10.73;6.00;;;;;;;;;;5032914;28;20495;-44
2021/10/02 01:55:16;;;;;;;14.27;7.22;;;;;;;;;;5032919;28;20043;-43
2021/10/02 01:57:44;;;;;;;14.82;6.93;;;;;;;;;;5031484;28;20625;-44
2021/10/02 02:00:10;;;;;;;12.95;6.15;;;;;;;;;;5033075;28;20107;-43
2021/10/02 02:02:37;;;;;;;9.13;5.32;;;;;;;;;;5032750;28;20477;-43
2021/10/02 02:05:08;;;;;;;11.85;6.38;;;;;;;;;;5032695;28;20419;-43
2021/10/02 02:07:35;;;;;;;12.07;6.30;;;;;;;;;;5032557;28;20577;-44
2021/10/02 02:10:01;;;;;;;11.57;6.72;;;;;;;;;;5032421;28;20121;-45
2021/10/02 02:12:33;;;;;;;12.32;6.20;;;;;;;;;;5047895;28;20124;-43
2021/10/02 02:15:07;;;;;;;11.60;5.95;;;;;;;;;;5031368;28;20052;-44
2021/10/02 02:17:35;;;;;;;13.20;6.68;;;;;;;;;;5032398;28;20168;-44
2021/10/02 02:20:02;;;;;;;19.13;7.90;;;;;;;;;;5032456;28;20067;-44
2021/10/02 02:22:27;;;;;;;13.40;7.63;;;;;;;;;;5032276;28;20064;-43
2021/10/02 02:24:53;;;;;;;9.88;5.57;;;;;;;;;;5032367;28;20115;-44
2021/10/02 02:27:18;;;;;;;11.90;5.90;;;;;;;;;;5032349;28;20040;-43
2021/10/02 02:29:44;;;;;;;15.55;6.88;;;;;;;;;;5032198;28;20025;-44
2021/10/02 02:32:09;;;;;;;13.13;6.90;;;;;;;;;;5032282;28;20030;-43
2021/10/02 02:34:35;;;;;;;11.25;6.10;;;;;;;;;;5032074;28;20500;-43
2021/10/02 02:37:00;;;;;;;14.50;7.03;;;;;;;;;;5031974;28;20046;-44
2021/10/02 02:39:29;;;;;;;18.35;7.28;;;;;;;;;;5031393;28;20029;-43
2021/10/02 02:41:55;;;;;;;13.05;6.88;;;;;;;;;;5032020;28;20476;-43
2021/10/02 02:44:21;;;;;;;17.10;6.97;;;;;;;;;;5031994;28;20021;-44
2021/10/02 02:46:54;;;;;;;12.52;7.10;;;;;;;;;;5030618;28;20033;-44
2021/10/02 02:49:32;;;;;;;12.45;6.95;;;;;;;;;;5031997;28;20476;-43
2021/10/02 02:52:07;;;;;;;15.65;7.65;;;;;;;;;;5031930;28;20509;-43
2021/10/02 02:54:48;;;;;;;15.57;6.88;;;;;;;;;;5032000;28;20033;-44
2021/10/02 02:57:15;;;;;;;14.93;6.75;;;;;;;;;;5031686;28;20052;-45
2021/10/02 02:59:44;;;;;;;10.43;6.45;;;;;;;;;;5031728;28;20044;-44
2021/10/02 03:02:16;;;;;;;10.25;5.68;;;;;;;;;;5032014;28;20392;-44
2021/10/02 03:04:41;;;;;;;11.75;7.47;;;;;;;;;;5031544;28;20123;-43
2021/10/02 03:07:10;;;;;;;12.25;6.22;;;;;;;;;;5031701;28;20041;-43
2021/10/02 03:09:38;;;;;;;12.68;6.05;;;;;;;;;;5031359;28;20079;-43
2021/10/02 03:12:04;;;;;;;13.43;6.07;;;;;;;;;;5031918;28;20103;-44
2021/10/02 03:14:30;;;;;;;12.50;6.05;;;;;;;;;;5031422;28;20479;-44
2021/10/02 03:16:56;;;;;;;12.93;6.78;;;;;;;;;;5031543;28;20033;-44
2021/10/02 03:19:21;;;;;;;13.50;5.65;;;;;;;;;;5031564;28;20576;-44
2021/10/02 03:21:49;;;;;;;12.52;6.65;;;;;;;;;;5031433;28;20026;-44
2021/10/02 03:24:15;;;;;;;9.45;5.28;;;;;;;;;;5031507;28;20057;-44
2021/10/02 03:26:41;;;;;;;11.20;5.93;;;;;;;;;;5031257;28;20068;-43
2021/10/02 03:29:06;;;;;;;11.68;6.03;;;;;;;;;;5031508;28;20044;-43
2021/10/02 03:31:33;;;;;;;13.20;5.97;;;;;;;;;;5031355;28;20022;-44
2021/10/02 03:33:58;;;;;;;10.68;6.75;;;;;;;;;;5031311;28;20038;-44
2021/10/02 03:36:24;;;;;;;9.38;5.45;;;;;;;;;;5031142;28;20025;-43
2021/10/02 03:38:50;;;;;;;12.85;6.32;;;;;;;;;;5031564;28;20029;-43
2021/10/02 03:41:17;;;;;;;12.60;6.93;;;;;;;;;;5031546;28;20017;-44
2021/10/02 03:43:43;;;;;;;8.88;5.45;;;;;;;;;;5031194;28;20038;-43
2021/10/02 03:46:08;;;;;;;8.50;5.28;;;;;;;;;;5031441;28;20022;-44
2021/10/02 03:48:33;;;;;;;13.80;7.05;;;;;;;;;;5031386;28;20040;-43
2021/10/02 03:50:59;;;;;;;14.43;7.05;;;;;;;;;;5032956;28;20047;-44
2021/10/02 03:53:27;;;;;;;12.23;5.93;;;;;;;;;;5035134;28;20515;-43
2021/10/02 03:55:53;;;;;;;12.00;6.60;;;;;;;;;;5035036;28;20476;-44
2021/10/02 03:58:18;;;;;;;11.95;6.18;;;;;;;;;;5035350;28;20037;-43
2021/10/02 04:00:43;;;;;;;11.75;6.18;;;;;;;;;;5035249;28;20522;-44
2021/10/02 04:03:09;;;;;;;15.00;7.05;;;;;;;;;;5033855;28;20038;-44
2021/10/02 04:05:34;;;;;;;11.55;5.97;;;;;;;;;;5033590;28;20059;-43
2021/10/02 04:07:59;;;;;;;11.57;6.05;;;;;;;;;;5034949;28;20029;-44
2021/10/02 04:10:25;;;;;;;9.55;5.05;;;;;;;;;;5034650;28;20048;-43
2021/10/02 04:12:50;;;;;;;12.13;5.68;;;;;;;;;;5034944;28;20431;-43
2021/10/02 04:15:16;;;;;;;10.82;5.50;;;;;;;;;;5034830;28;20060;-43
2021/10/02 04:17:41;;;;;;;11.18;5.75;;;;;;;;;;5034642;28;20056;-43
2021/10/02 04:20:07;;;;;;;10.88;4.57;;;;;;;;;;5034772;28;20025;-43
2021/10/02 04:22:33;;;;;;;11.32;6.40;;;;;;;;;;5034583;28;20120;-43
2021/10/02 04:24:59;;;;;;;8.93;5.18;;;;;;;;;;5034892;28;20021;-44
2021/10/02 04:27:24;;;;;;;12.25;5.55;;;;;;;;;;5034926;28;20055;-44
2021/10/02 04:29:49;;;;;;;13.20;6.47;;;;;;;;;;5034479;28;20022;-44
2021/10/02 04:32:15;;;;;;;13.00;6.82;;;;;;;;;;5034575;28;20045;-44
2021/10/02 04:34:41;;;;;;;11.40;5.53;;;;;;;;;;5034378;28;20022;-44
2021/10/02 04:37:06;;;;;;;14.55;6.03;;;;;;;;;;5034564;28;20041;-44
2021/10/02 04:39:31;;;;;;;12.02;6.72;;;;;;;;;;5034615;28;20338;-44
2021/10/02 04:41:57;;;;;;;9.10;6.00;;;;;;;;;;5034316;28;20033;-44
2021/10/02 04:44:23;;;;;;;10.30;5.20;;;;;;;;;;5034232;28;20025;-44
2021/10/02 04:46:49;;;;;;;12.82;5.90;;;;;;;;;;5034214;28;20026;-44
2021/10/02 04:49:14;;;;;;;10.57;5.85;;;;;;;;;;5034246;28;20017;-43
2021/10/02 04:51:40;;;;;;;8.88;5.75;;;;;;;;;;5034306;28;20120;-43
2021/10/02 04:54:05;;;;;;;10.98;5.63;;;;;;;;;;5034353;28;20017;-43
2021/10/02 04:56:32;;;;;;;10.00;4.70;;;;;;;;;;5034198;28;20503;-43
2021/10/02 04:58:58;;;;;;;12.50;6.53;;;;;;;;;;5034266;28;20021;-44
2021/10/02 05:01:24;;;;;;;9.02;5.57;;;;;;;;;;5033914;28;20447;-43
2021/10/02 05:03:49;;;;;;;9.88;5.30;;;;;;;;;;5032879;28;20025;-43
2021/10/02 05:06:14;;;;;;;10.02;5.63;;;;;;;;;;5033846;28;20474;-43
2021/10/02 05:08:40;;;;;;;12.15;6.05;;;;;;;;;;5033890;28;20013;-43
2021/10/02 05:11:06;;;;;;;12.40;5.32;;;;;;;;;;5033739;28;20054;-44
2021/10/02 05:13:32;;;;;;;13.02;5.55;;;;;;;;;;5033633;28;20083;-43
2021/10/02 05:15:58;;;;;;;8.90;6.30;;;;;;;;;;5033921;28;20108;-44
2021/10/02 05:18:24;;;;;;;12.90;5.43;;;;;;;;;;5033693;28;20112;-43
2021/10/02 05:20:49;;;;;;;12.55;5.15;;;;;;;;;;5033767;28;20029;-43
2021/10/02 05:23:14;;;;;;;11.27;5.68;;;;;;;;;;5032308;28;20395;-43
2021/10/02 05:25:40;;;;;;;11.60;5.15;;;;;;;;;;5033355;28;20037;-43
2021/10/02 05:28:05;;;;;;;12.48;5.03;;;;;;;;;;5033708;28;20048;-43
2021/10/02 05:30:31;;;;;;;11.65;5.43;;;;;;;;;;5033398;28;20098;-44
2021/10/02 05:32:57;;;;;;;8.98;6.00;;;;;;;;;;5033641;28;20037;-43
2021/10/02 05:35:24;;;;;;;10.40;5.57;;;;;;;;;;5033264;28;20037;-43
2021/10/02 05:37:50;;;;;;;11.93;5.53;;;;;;;;;;5033396;28;20391;-44
2021/10/02 05:40:15;;;;;;;11.85;5.60;;;;;;;;;;5033567;28;20025;-43
2021/10/02 05:42:41;;;;;;;10.35;5.78;;;;;;;;;;5033130;28;20035;-44
2021/10/02 05:45:06;;;;;;;10.57;5.18;;;;;;;;;;5033320;28;20029;-43
2021/10/02 05:47:33;;;;;;;15.35;7.30;;;;;;;;;;5033029;28;20353;-43
2021/10/02 05:49:58;;;;;;;11.00;5.70;;;;;;;;;;5033267;28;20037;-44
2021/10/02 05:52:24;;;;;;;11.43;5.05;;;;;;;;;;5033033;28;20048;-44
2021/10/02 05:54:50;;;;;;;9.73;5.03;;;;;;;;;;5032895;28;20045;-43
2021/10/02 05:57:16;;;;;;;9.85;5.45;;;;;;;;;;5032824;28;20048;-43
2021/10/02 05:59:41;;;;;;;8.18;5.03;;;;;;;;;;5048182;28;20117;-44
2021/10/02 06:02:07;;;;;;;12.48;5.40;;;;;;;;;;5033119;28;20108;-44
2021/10/02 06:04:32;;;;;;;9.18;5.95;;;;;;;;;;5032613;28;20476;-44
2021/10/02 06:06:57;;;;;;;9.52;5.50;;;;;;;;;;5033069;28;20024;-43
2021/10/02 06:09:23;;;;;;;9.50;5.78;;;;;;;;;;5032484;28;20386;-44
2021/10/02 06:11:48;;;;;;;8.38;4.45;;;;;;;;;;5032562;28;20037;-43
2021/10/02 06:14:14;;;;;;;9.07;5.13;;;;;;;;;;5032462;28;20167;-43
2021/10/02 06:16:40;;;;;;;11.13;5.20;;;;;;;;;;5032337;28;20060;-44
2021/10/02 06:19:07;;;;;;;12.32;6.45;;;;;;;;;;5032795;28;20123;-43
2021/10/02 06:21:32;;;;;;;10.57;6.13;;;;;;;;;;5032664;28;20061;-44
2021/10/02 06:23:59;;;;;;;8.07;5.15;;;;;;;;;;5032395;28;20439;-43
2021/10/02 06:26:25;;;;;;;8.60;5.20;;;;;;;;;;5032256;28;20079;-43
2021/10/02 06:28:51;;;;;;;9.98;5.80;;;;;;;;;;5032215;28;20037;-43
2021/10/02 06:31:16;;;;;;;10.13;6.05;;;;;;;;;;5032517;28;20028;-43
2021/10/02 06:33:42;;;;;;;11.30;6.70;;;;;;;;;;5032454;28;20056;-43
2021/10/02 06:36:12;;;;;;;7.70;4.60;;;;;;;;;;5032137;28;20033;-43
2021/10/02 06:38:38;;;;;;;9.15;5.18;;;;;;;;;;5032080;28;20484;-44
2021/10/02 06:41:04;;;;;;;12.68;5.57;;;;;;;;;;5032417;28;20033;-44
2021/10/02 06:43:29;;;;;;;17.88;6.63;;;;;;;;;;5032317;28;20083;-44
2021/10/02 06:45:55;;;;;;;10.18;6.45;;;;;;;;;;5031917;28;20515;-43
2021/10/02 06:48:21;;;;;;;11.82;5.93;;;;;;;;;;5031987;28;20107;-43
2021/10/02 06:50:47;;;;;;;9.73;4.97;;;;;;;;;;5031970;28;20492;-43
2021/10/02 06:53:12;;;;;;;12.88;6.97;;;;;;;;;;5047058;28;20071;-44
2021/10/02 06:55:38;;;;;;;10.80;6.00;;;;;;;;;;5031809;28;20057;-43
2021/10/02 06:58:03;;;;;;;17.75;6.15;;;;;;;;;;5031820;28;20045;-43
2021/10/02 07:00:29;;;;;;;7.28;4.47;;;;;;;;;;5031766;28;20079;-44
2021/10/02 07:02:54;;;;;;;8.15;5.07;;;;;;;;;;5031875;28;20099;-43
2021/10/02 07:05:20;;;;;;;12.10;5.85;;;;;;;;;;5031921;28;20049;-43
2021/10/02 07:07:45;;;;;;;12.13;5.75;;;;;;;;;;5031544;28;20031;-43
2021/10/02 07:10:11;;;;;;;8.73;4.90;;;;;;;;;;5031751;28;20053;-42
2021/10/02 07:12:38;;;;;;;11.93;5.78;;;;;;;;;;5031612;28;20059;-43
2021/10/02 07:15:04;;;;;;;9.77;5.75;;;;;;;;;;5031471;28;20036;-43
2021/10/02 07:17:29;;;;;;;9.88;5.32;;;;;;;;;;5031638;28;20041;-43
2021/10/02 07:19:55;;;;;;;11.32;5.32;;;;;;;;;;5031599;28;20460;-44
2021/10/02 07:22:20;;;;;;;11.68;5.43;;;;;;;;;;5031652;28;20030;-44
2021/10/02 07:24:46;;;;;;;13.10;6.20;;;;;;;;;;5031220;28;20025;-44
2021/10/02 07:27:11;;;;;;;9.68;5.30;;;;;;;;;;5031074;28;20144;-44
2021/10/02 07:29:37;;;;;;;10.38;5.60;;;;;;;;;;5031276;28;20010;-43
2021/10/02 07:32:02;;;;;;;10.52;5.32;;;;;;;;;;5031381;28;20099;-43
2021/10/02 07:34:28;;;;;;;10.75;5.35;;;;;;;;;;5031311;28;20025;-44
2021/10/02 07:36:54;;;;;;;13.77;5.80;;;;;;;;;;5031464;28;20040;-43
2021/10/02 07:39:19;;;;;;;12.45;5.85;;;;;;;;;;5031312;28;20507;-44
2021/10/02 07:41:47;;;;;;;8.40;4.97;;;;;;;;;;5031240;28;20109;-44
2021/10/02 07:44:13;;;;;;;11.32;5.60;;;;;;;;;;5031155;28;20028;-44
2021/10/02 07:46:42;;;;;;;10.70;5.97;;;;;;;;;;5031162;28;20029;-43
2021/10/02 07:49:09;;;;;;;9.85;4.97;;;;;;;;;;5030211;28;20021;-43
2021/10/02 07:51:34;;;;;;;13.85;5.97;;;;;;;;;;5031157;28;20542;-44
2021/10/02 07:54:00;;;;;;;9.63;5.05;;;;;;;;;;5031085;28;20033;-43
2021/10/02 07:56:25;;;;;;;7.90;5.75;;;;;;;;;;5030995;28;20037;-44
2021/10/02 07:58:53;;;;;;;12.68;5.97;;;;;;;;;;5031127;28;20068;-43
2021/10/02 08:01:19;;;;;;;11.88;5.43;;;;;;;;;;5031127;28;20042;-43
2021/10/02 08:03:45;;;;;;;9.80;5.70;;;;;;;;;;5030993;28;20028;-47
2021/10/02 08:06:11;;;;;;;11.75;5.80;;;;;;;;;;5031052;28;20031;-43
2021/10/02 08:08:37;;;;;;;13.02;5.93;;;;;;;;;;5031004;28;20043;-44
2021/10/02 08:11:04;;;;;;;9.18;5.50;;;;;;;;;;5030913;28;20053;-43
2021/10/02 08:13:30;;;;;;;12.25;5.75;;;;;;;;;;5030908;28;20036;-43
2021/10/02 08:15:57;;;;;;;19.40;5.85;;;;;;;;;;5030892;28;20029;-43
2021/10/02 08:18:23;;;;;;;10.05;5.85;;;;;;;;;;5031198;28;20028;-43
2021/10/02 08:20:49;;;;;;;8.73;5.80;;;;;;;;;;5031096;28;20030;-44
2021/10/02 08:23:15;;;;;;;10.68;6.30;;;;;;;;;;5030971;28;20094;-44
2021/10/02 08:25:43;;;;;;;10.05;4.97;;;;;;;;;;5030702;28;20033;-44
2021/10/02 08:28:08;;;;;;;9.02;5.53;;;;;;;;;;5030952;28;20155;-44
2021/10/02 08:30:34;;;;;;;11.13;5.90;;;;;;;;;;5031070;28;20112;-44
2021/10/02 08:33:00;;;;;;;11.00;5.60;;;;;;;;;;5030700;28;20022;-44
2021/10/02 08:35:25;;;;;;;10.48;4.72;;;;;;;;;;5030791;28;20033;-44
2021/10/02 08:37:50;;;;;;;7.80;5.50;;;;;;;;;;5033262;28;20069;-44
2021/10/02 08:40:17;;;;;;;12.05;6.00;;;;;;;;;;5034399;28;20025;-44
2021/10/02 08:42:43;;;;;;;11.73;6.18;;;;;;;;;;5034273;28;20464;-44
2021/10/02 08:45:09;;;;;;;10.45;5.75;;;;;;;;;;5034250;28;20025;-43
2021/10/02 08:47:36;;;;;;;9.13;5.40;;;;;;;;;;5034154;28;20540;-44
2021/10/02 08:50:03;;;;;;;11.52;5.93;;;;;;;;;;5034215;28;20472;-44
2021/10/02 08:52:29;;;;;;;8.98;5.68;;;;;;;;;;5034193;28;20017;-43
2021/10/02 08:54:56;;;;;;;10.98;4.85;;;;;;;;;;5033981;28;20094;-43
2021/10/02 08:57:23;;;;;;;13.20;5.63;;;;;;;;;;5034356;28;20030;-44
2021/10/02 08:59:49;;;;;;;10.70;5.53;;;;;;;;;;5033947;28;20060;-45
2021/10/02 09:02:15;;;;;;;8.57;4.78;;;;;;;;;;5033931;28;20026;-44
2021/10/02 09:04:41;;;;;;;9.88;5.53;;;;;;;;;;5033807;28;20026;-44
2021/10/02 09:07:06;;;;;;;7.75;4.75;;;;;;;;;;5033855;28;20120;-44
2021/10/02 09:09:32;;;;;;;8.65;4.15;;;;;;;;;;5033555;28;20029;-43
2021/10/02 09:11:58;;;;;;;8.98;4.97;;;;;;;;;;5034147;28;20036;-43
2021/10/02 09:14:24;;;;;;;7.43;4.82;;;;;;;;;;5033866;28;20033;-43
2021/10/02 09:16:49;;;;;;;6.47;4.30;;;;;;;;;;5033584;28;20415;-43
2021/10/02 09:19:15;;;;;;;10.23;5.32;;;;;;;;;;5033765;28;20026;-43
2021/10/02 09:21:41;;;;;;;9.13;4.82;;;;;;;;;;5033769;28;20022;-43
2021/10/02 09:24:19;;;;;;;12.48;5.25;;;;;;;;;;5033817;28;20026;-43
2021/10/02 09:26:47;;;;;;;10.68;5.38;;;;;;;;;;5033771;28;20025;-43
2021/10/02 09:29:13;;;;;;;8.52;5.10;;;;;;;;;;5033737;28;20031;-43
2021/10/02 09:31:39;;;;;;;7.78;4.78;;;;;;;;;;5032204;28;20534;-44
2021/10/02 09:34:05;;;;;;;8.85;4.75;;;;;;;;;;5033664;28;20454;-43
2021/10/02 09:36:30;;;;;;;9.52;5.20;;;;;;;;;;5033267;28;20042;-44
2021/10/02 09:38:55;;;;;;;10.45;5.45;;;;;;;;;;5033538;28;20021;-43
2021/10/02 09:41:22;;;;;;;11.02;5.72;;;;;;;;;;5033621;28;20028;-44
2021/10/02 09:43:54;;;;;;;9.35;4.57;;;;;;;;;;5033441;28;20423;-43
2021/10/02 09:46:31;;;;;;;8.18;4.78;;;;;;;;;;5033147;28;20044;-43
2021/10/02 09:48:56;;;;;;;8.68;5.35;;;;;;;;;;5032684;28;20100;-44
2021/10/02 09:51:35;;;;;;;8.90;4.63;;;;;;;;;;5033005;28;20125;-43
2021/10/02 09:54:01;;;;;;;9.98;4.95;;;;;;;;;;5033059;28;20033;-44
2021/10/02 09:56:26;;;;;;;8.95;5.45;;;;;;;;;;5033138;28;20048;-44
2021/10/02 09:58:52;;;;;;;7.57;4.20;;;;;;;;;;5032775;28;20029;-44
2021/10/02 10:01:23;;;;;;;8.75;4.60;;;;;;;;;;5032899;28;20033;-44
2021/10/02 10:03:49;;;;;;;9.27;4.70;;;;;;;;;;5032715;28;20033;-44
2021/10/02 10:06:15;;;;;;;10.48;5.80;;;;;;;;;;5048174;28;20067;-44
2021/10/02 10:08:41;;;;;;;9.20;5.20;;;;;;;;;;5032740;28;20033;-43
2021/10/02 10:11:08;;;;;;;14.13;5.95;;;;;;;;;;5032672;28;20045;-43
2021/10/02 10:13:34;;;;;;;11.15;5.20;;;;;;;;;;5032510;28;20034;-44
2021/10/02 10:15:59;;;;;;;6.45;4.85;;;;;;;;;;5032547;28;20025;-44
2021/10/02 10:18:26;;;;;;;7.75;4.95;;;;;;;;;;5032596;28;20041;-44
2021/10/02 10:20:56;;;;;;;14.25;5.53;;;;;;;;;;5032720;28;20017;-44
2021/10/02 10:23:30;;;;;;;7.30;4.38;;;;;;;;;;5032535;28;20476;-44
2021/10/02 10:26:00;;;;;;;5.78;3.80;;;;;;;;;;5032194;28;20069;-44
2021/10/02 10:28:27;;;;;;;7.65;4.97;;;;;;;;;;5032636;28;20044;-43
2021/10/02 10:30:54;;;;;;;10.05;4.72;;;;;;;;;;5032240;28;20633;-43
2021/10/02 10:33:20;;;;;;;7.25;3.95;;;;;;;;;;5032249;28;20034;-44
2021/10/02 10:35:50;;;;;;;9.43;4.20;;;;;;;;;;5032162;28;20384;-44
2021/10/02 10:38:17;;;;;;;7.38;4.25;;;;;;;;;;5032392;28;20060;-46
2021/10/02 10:40:43;;;;;;;8.80;4.53;;;;;;;;;;5032076;28;20464;-44
2021/10/02 10:43:09;;;;;;;9.93;5.78;;;;;;;;;;5032403;28;20060;-44
2021/10/02 10:45:37;;;;;;;11.70;4.70;;;;;;;;;;5032266;28;20550;-44
2021/10/02 10:48:05;;;;;;;7.57;5.30;;;;;;;;;;5031955;28;20024;-44
2021/10/02 10:50:32;;;;;;;6.68;4.25;;;;;;;;;;5032001;28;20400;-44
2021/10/02 10:53:01;;;;;;;8.23;4.28;;;;;;;;;;5031703;28;20033;-43
2021/10/02 10:55:27;;;;;;;10.18;5.22;;;;;;;;;;5031761;28;20037;-44
2021/10/02 10:57:57;;;;;;;7.30;4.28;;;;;;;;;;5031645;28;20044;-44
2021/10/02 11:00:31;;;;;;;7.88;4.22;;;;;;;;;;5030963;28;20040;-44
2021/10/02 11:03:00;;;;;;;5.15;3.60;;;;;;;;;;5031620;28;20365;-44
2021/10/02 11:05:39;;;;;;;6.75;3.50;;;;;;;;;;5031423;28;20025;-44
2021/10/02 11:08:06;;;;;;;9.75;4.05;;;;;;;;;;5030763;28;20021;-44
2021/10/02 11:10:51;;;;;;;11.95;4.38;;;;;;;;;;5031781;28;20056;-43
2021/10/02 11:13:29;;;;;;;8.07;3.53;;;;;;;;;;5031456;28;20053;-44
2021/10/02 11:15:56;;;;;;;4.53;3.25;;;;;;;;;;5029558;28;20033;-43
2021/10/02 11:18:42;;;;;;;5.68;3.58;;;;;;;;;;5031761;28;20032;-43
2021/10/02 11:21:08;;;;;;;5.18;3.35;;;;;;;;;;5031573;28;20044;-44
2021/10/02 11:23:53;;;;;;;5.25;3.20;;;;;;;;;;5031304;28;20041;-44
2021/10/02 11:26:23;;;;;;;5.20;2.88;;;;;;;;;;5031615;28;20392;-43
2021/10/02 11:28:51;;;;;;;6.32;3.45;;;;;;;;;;5031332;28;20032;-44
2021/10/02 11:31:19;;;;;;;5.78;2.90;;;;;;;;;;5031438;28;20026;-44
2021/10/02 11:33:44;;;;;;;5.85;3.17;;;;;;;;;;5031553;28;20044;-44
2021/10/02 11:36:28;;;;;;;5.80;3.58;;;;;;;;;;5031339;28;20476;-44
2021/10/02 11:39:12;;;;;;;5.93;3.50;;;;;;;;;;5031163;28;20041;-43
2021/10/02 11:41:39;;;;;;;6.22;3.63;;;;;;;;;;5031282;28;20080;-44
2021/10/02 11:44:05;;;;;;;4.97;3.30;;;;;;;;;;5031432;28;20354;-44
2021/10/02 11:46:31;;;;;;;7.68;4.00;;;;;;;;;;5031788;28;20029;-43
2021/10/02 11:49:11;;;;;;;7.03;3.20;;;;;;;;;;5031441;28;20037;-43
2021/10/02 11:51:37;;;;;;;5.88;3.28;;;;;;;;;;5031114;28;20026;-44
2021/10/02 11:54:08;;;;;;;6.35;3.75;;;;;;;;;;5029846;28;20032;-44
2021/10/02 11:56:35;;;;;;;6.13;3.50;;;;;;;;;;5031095;28;20037;-44
2021/10/02 11:59:04;;;;;;;6.45;3.22;;;;;;;;;;5031099;28;20014;-44
2021/10/02 12:01:31;;;;;;;7.22;3.55;;;;;;;;;;5031133;28;20040;-43
2021/10/02 12:04:08;;;;;;;6.38;3.33;;;;;;;;;;5031047;28;20013;-44
2021/10/02 12:06:37;;;;;;;4.53;3.05;;;;;;;;;;5031266;28;20037;-44
2021/10/02 12:09:04;;;;;;;7.60;3.35;;;;;;;;;;5031078;28;20522;-44
2021/10/02 12:11:30;;;;;;;6.55;3.47;;;;;;;;;;5031529;28;20137;-44
2021/10/02 12:13:56;;;;;;;5.72;3.40;;;;;;;;;;5034788;28;20124;-44
2021/10/02 12:16:31;;;;;;;4.00;3.25;;;;;;;;;;5035131;28;20078;-44
2021/10/02 12:19:06;;;;;;;8.10;3.50;;;;;;;;;;5035079;28;20129;-44
2021/10/02 12:21:33;;;;;;;6.28;3.28;;;;;;;;;;5034763;28;20041;-45
2021/10/02 12:24:08;;;;;;;5.70;3.05;;;;;;;;;;5034618;28;20472;-44
2021/10/02 12:26:57;;;;;;;6.38;3.42;;;;;;;;;;5034652;28;20025;-43
2021/10/02 12:29:27;;;;;;;5.80;3.00;;;;;;;;;;5034167;28;20073;-43
2021/10/02 12:31:53;;;;;;;4.53;2.97;;;;;;;;;;5034691;28;20022;-44
2021/10/02 12:34:18;;;;;;;4.57;2.72;;;;;;;;;;5034483;28;20041;-44
2021/10/02 12:36:48;;;;;;;3.53;2.47;;;;;;;;;;5034713;28;20078;-44
2021/10/02 12:39:13;;;;;;;3.45;2.38;;;;;;;;;;5034698;28;20029;-43
2021/10/02 12:41:40;;;;;;;5.03;2.63;;;;;;;;;;5034314;28;20017;-43
2021/10/02 12:44:13;;;;;;;9.80;2.63;;;;;;;;;;5034297;28;20466;-44
2021/10/02 12:46:39;;;;;;;4.50;2.45;;;;;;;;;;5034585;28;20493;-44
2021/10/02 12:49:05;;;;;;;4.47;2.78;;;;;;;;;;5034239;28;20033;-44
2021/10/02 12:51:30;;;;;;;4.78;2.47;;;;;;;;;;5034330;28;20040;-44
2021/10/02 12:53:56;;;;;;;2.60;2.00;;;;;;;;;;5034029;28;20017;-44
2021/10/02 12:56:21;;;;;;;3.58;2.17;;;;;;;;;;5033951;28;20026;-44
2021/10/02 12:58:46;;;;;;;7.03;3.20;;;;;;;;;;5034011;28;20029;-44
2021/10/02 13:01:12;;;;;;;2.95;2.58;;;;;;;;;;5034260;28;20029;-44
2021/10/02 13:03:41;;;;;;;2.92;2.30;;;;;;;;;;5033884;28;20029;-44
2021/10/02 13:06:06;;;;;;;6.32;3.13;;;;;;;;;;5034039;28;20441;-44
2021/10/02 13:08:32;;;;;;;3.25;2.10;;;;;;;;;;5033941;28;20097;-44
2021/10/02 13:10:58;;;;;;;3.50;2.25;;;;;;;;;;5033690;28;20538;-44
2021/10/02 13:13:23;;;;;;;4.35;2.55;;;;;;;;;;5033834;28;20026;-44
2021/10/02 13:15:50;;;;;;;4.53;2.47;;;;;;;;;;5033725;28;20083;-45
2021/10/02 13:18:21;;;;;;;5.35;2.47;;;;;;;;;;5033613;28;20037;-44
2021/10/02 13:20:46;;;;;;;4.55;2.25;;;;;;;;;;5033625;28;20025;-44
2021/10/02 13:23:17;;;;;;;3.47;2.00;;;;;;;;;;5032973;28;20032;-44
2021/10/02 13:25:43;;;;;;;4.90;2.42;;;;;;;;;;5033415;28;20087;-44
2021/10/02 13:28:19;;;;;;;3.17;2.25;;;;;;;;;;5033659;28;20365;-44
2021/10/02 13:30:45;;;;;;;4.18;1.98;;;;;;;;;;5033424;28;20037;-44
2021/10/02 13:33:14;;;;;;;4.05;2.20;;;;;;;;;;5033550;28;20072;-43
2021/10/02 13:35:41;;;;;;;3.75;1.85;;;;;;;;;;5033302;28;20045;-44
2021/10/02 13:38:07;;;;;;;2.50;1.88;;;;;;;;;;5033204;28;20025;-44
2021/10/02 13:40:34;;;;;;;5.15;2.20;;;;;;;;;;5033388;28;20494;-44
2021/10/02 13:43:01;;;;;;;4.55;2.40;;;;;;;;;;5033252;28;20116;-44
2021/10/02 13:45:29;;;;;;;6.88;2.85;;;;;;;;;;5033166;28;20035;-44
2021/10/02 13:47:56;;;;;;;5.30;2.00;;;;;;;;;;5033083;28;20503;-44
2021/10/02 13:50:21;;;;;;;3.72;1.95;;;;;;;;;;5033110;28;20029;-44
2021/10/02 13:52:47;;;;;;;3.13;2.00;;;;;;;;;;5033218;28;20025;-44
2021/10/02 13:55:12;;;;;;;4.28;2.30;;;;;;;;;;5032973;28;20025;-43
2021/10/02 13:57:38;;;;;;;3.45;2.42;;;;;;;;;;5032899;28;20393;-44
2021/10/02 14:00:03;;;;;;;4.30;2.08;;;;;;;;;;5033144;28;20029;-43
2021/10/02 14:02:38;;;;;;;3.97;2.30;;;;;;;;;;5032886;28;20030;-43
2021/10/02 14:05:04;;;;;;;4.75;2.35;;;;;;;;;;5032855;28;20017;-43
2021/10/02 14:07:29;;;;;;;3.97;2.50;;;;;;;;;;5031512;28;20022;-44
2021/10/02 14:09:54;;;;;;;5.43;2.35;;;;;;;;;;5032610;28;20504;-43
2021/10/02 14:12:20;;;;;;;3.60;1.77;;;;;;;;;;5032788;28;20041;-44
2021/10/02 14:14:45;;;;;;;3.13;2.05;;;;;;;;;;5032494;28;20108;-44
2021/10/02 14:17:10;;;;;;;5.47;3.10;;;;;;;;;;5047966;28;20044;-44
2021/10/02 14:19:36;;;;;;;4.35;2.10;;;;;;;;;;5032857;28;20034;-43
2021/10/02 14:22:02;;;;;;;4.80;2.60;;;;;;;;;;5032376;28;20025;-44
2021/10/02 14:24:28;;;;;;;2.78;1.98;;;;;;;;;;5032586;28;20108;-44
2021/10/02 14:26:53;;;;;;;5.93;2.40;;;;;;;;;;5032335;28;20121;-44
2021/10/02 14:29:19;;;;;;;8.48;2.40;;;;;;;;;;5032463;28;20036;-44
2021/10/02 14:31:45;;;;;;;8.60;2.78;;;;;;;;;;5047967;28;20471;-44
2021/10/02 14:34:12;;;;;;;7.95;2.03;;;;;;;;;;5032229;28;20123;-44
2021/10/02 14:36:38;;;;;;;2.75;2.00;;;;;;;;;;5032088;28;20031;-45
2021/10/02 14:39:05;;;;;;;4.28;2.13;;;;;;;;;;5032176;28;20037;-44
2021/10/02 14:41:30;;;;;;;5.18;2.63;;;;;;;;;;5032495;28;20110;-44
2021/10/02 14:43:56;;;;;;;6.13;2.78;;;;;;;;;;5031962;28;20464;-44
2021/10/02 14:46:22;;;;;;;3.15;2.15;;;;;;;;;;5032433;28;20018;-43
2021/10/02 14:48:48;;;;;;;3.47;2.03;;;;;;;;;;5032263;28;20104;-44
2021/10/02 14:51:13;;;;;;;3.80;2.20;;;;;;;;;;5032283;28;20551;-44
2021/10/02 14:53:41;;;;;;;5.05;2.63;;;;;;;;;;5032221;28;20025;-44
2021/10/02 14:56:07;;;;;;;2.05;1.80;;;;;;;;;;5032128;28;20411;-44
2021/10/02 14:58:33;;;;;;;3.38;2.63;;;;;;;;;;5032174;28;20035;-44
2021/10/02 15:00:59;;;;;;;4.13;2.33;;;;;;;;;;5030645;28;20021;-44
2021/10/02 15:03:24;;;;;;;3.45;2.00;;;;;;;;;;5031627;28;20087;-43
2021/10/02 15:05:53;;;;;;;4.63;2.30;;;;;;;;;;5031755;28;20021;-44
2021/10/02 15:08:19;;;;;;;5.03;2.45;;;;;;;;;;5031811;28;20029;-43
2021/10/02 15:10:44;;;;;;;4.30;2.58;;;;;;;;;;5030123;28;20115;-44
2021/10/02 15:13:10;;;;;;;3.58;2.10;;;;;;;;;;5031741;28;20056;-43
2021/10/02 15:15:35;;;;;;;2.35;2.08;;;;;;;;;;5031620;28;20057;-44
2021/10/02 15:18:01;;;;;;;6.97;2.15;;;;;;;;;;5031641;28;20049;-44
2021/10/02 15:20:27;;;;;;;5.30;2.58;;;;;;;;;;5031880;28;20056;-44
2021/10/02 15:22:57;;;;;;;4.13;2.50;;;;;;;;;;5031734;28;20387;-45
2021/10/02 15:25:23;;;;;;;3.10;1.67;;;;;;;;;;5031428;28;20087;-43
2021/10/02 15:28:01;;;;;;;8.55;2.25;;;;;;;;;;5031711;28;20029;-43
2021/10/02 15:30:28;;;;;;;3.20;2.38;;;;;;;;;;5031465;28;20036;-44
2021/10/02 15:32:54;;;;;;;4.72;2.20;;;;;;;;;;5030099;28;20026;-44